Time;durP1;ratioP1;P1;durP2;ratioP2;P2;SDS_P1;SDS_P2;PMS_P1;PMS_P2;Temp;Humidity;BMP_temperature;BMP_pressure;BME280_temperature;BME280_humidity;BME280_pressure;Samples;Min_cycle;Max_cycle;Signal;HPM_P1;HPM_P2
2022/10/21 00:02:09;;;;;;;;;;;9.40;99.90;;;;;;4965694;28;19914;-77
2022/10/21 00:04:34;;;;;;;;;;;9.50;99.90;;;;;;4966767;28;20346;-77
2022/10/21 00:07:00;;;;;;;;;;;9.50;99.90;;;;;;4960604;28;20421;-77
2022/10/21 00:09:25;;;;;;;;;;;9.40;99.90;;;;;;4966938;28;20541;-77
2022/10/21 00:11:51;;;;;;;;;;;9.40;99.90;;;;;;4963973;28;19997;-77
2022/10/21 00:14:16;;;;;;;;;;;9.40;99.90;;;;;;4959818;28;20357;-77
2022/10/21 00:16:42;;;;;;;;;;;9.50;99.90;;;;;;4962789;28;19910;-77
2022/10/21 00:19:07;;;;;;;;;;;9.50;99.90;;;;;;4966988;28;20010;-77
2022/10/21 00:21:32;;;;;;;;;;;9.30;99.90;;;;;;4966975;28;20476;-77
2022/10/21 00:23:58;;;;;;;;;;;9.20;99.90;;;;;;4963373;28;20220;-77
2022/10/21 00:26:24;;;;;;;;;;;9.40;99.90;;;;;;4967487;28;20352;-77
2022/10/21 00:28:53;;;;;;;;;;;9.40;99.90;;;;;;4959281;28;19924;-77
2022/10/21 00:31:19;;;;;;;;;;;9.50;99.90;;;;;;4966176;28;19914;-77
2022/10/21 00:33:44;;;;;;;;;;;9.50;99.90;;;;;;4956705;28;19917;-77
2022/10/21 00:36:13;;;;;;;;;;;9.50;99.90;;;;;;4960531;28;19957;-77
2022/10/21 00:38:39;;;;;;;;;;;9.60;99.90;;;;;;4963694;28;19910;-77
2022/10/21 00:41:05;;;;;;;;;;;9.70;99.90;;;;;;4959459;28;19907;-77
2022/10/21 00:43:30;;;;;;;;;;;9.80;99.90;;;;;;4964385;28;19921;-77
2022/10/21 00:46:01;;;;;;;;;;;9.80;99.90;;;;;;4965772;28;19914;-77
2022/10/21 00:48:31;;;;;;;;;;;9.80;99.90;;;;;;4962802;28;19918;-77
2022/10/21 00:51:03;;;;;;;;;;;9.70;99.90;;;;;;4956540;28;19960;-77
2022/10/21 00:53:29;;;;;;;;;;;9.80;99.90;;;;;;4961829;28;19911;-78
2022/10/21 00:55:58;;;;;;;;;;;9.70;99.90;;;;;;4962368;28;19910;-77
2022/10/21 00:58:26;;;;;;;;;;;9.70;99.90;;;;;;4965474;28;19910;-77
2022/10/21 01:00:54;;;;;;;;;;;9.60;99.90;;;;;;4966456;28;19910;-77
2022/10/21 01:03:21;;;;;;;;;;;9.60;99.90;;;;;;4965362;28;20384;-77
2022/10/21 01:05:46;;;;;;;;;;;9.60;99.90;;;;;;4964119;28;19910;-76
2022/10/21 01:08:12;;;;;;;;;;;9.60;99.90;;;;;;4960816;28;20473;-77
2022/10/21 01:10:38;;;;;;;;;;;9.60;99.90;;;;;;4965513;28;20581;-77
2022/10/21 01:13:22;;;;;;;;;;;9.60;99.90;;;;;;4961096;28;20324;-77
2022/10/21 01:15:51;;;;;;;;;;;9.70;99.90;;;;;;4949716;28;19910;-77
2022/10/21 01:18:19;;;;;;;;;;;9.80;99.90;;;;;;4964507;28;19910;-77
2022/10/21 01:20:45;;;;;;;;;;;9.70;99.90;;;;;;4966540;28;19918;-77
2022/10/21 01:23:18;;;;;;;;;;;9.80;99.90;;;;;;4963729;28;19910;-77
2022/10/21 01:26:04;;;;;;;;;;;9.80;99.90;;;;;;4961568;28;19957;-77
2022/10/21 01:28:39;;;;;;;;;;;9.70;99.90;;;;;;4957757;28;20078;-77
2022/10/21 01:31:09;;;;;;;;;;;9.70;99.90;;;;;;4963500;28;19956;-77
2022/10/21 01:33:40;;;;;;;;;;;9.60;99.90;;;;;;4958262;28;19910;-77
2022/10/21 01:36:08;;;;;;;;;;;9.60;99.90;;;;;;4962607;28;20354;-77
2022/10/21 01:38:40;;;;;;;;;;;9.70;99.90;;;;;;4963428;28;19965;-77
2022/10/21 01:41:14;;;;;;;;;;;9.60;99.90;;;;;;4964360;28;19917;-77
2022/10/21 01:43:44;;;;;;;;;;;9.60;99.90;;;;;;4964190;28;19965;-77
2022/10/21 01:46:09;;;;;;;;;;;9.60;99.90;;;;;;4955173;28;19906;-77
2022/10/21 01:48:38;;;;;;;;;;;9.60;99.90;;;;;;4963127;28;19977;-77
2022/10/21 01:51:05;;;;;;;;;;;9.70;99.90;;;;;;4963409;28;20390;-78
2022/10/21 01:53:35;;;;;;;;;;;9.60;99.90;;;;;;4958220;28;19968;-75
2022/10/21 01:56:02;;;;;;;;;;;9.60;99.90;;;;;;4969517;28;19968;-75
2022/10/21 01:58:30;;;;;;;;;;;9.60;99.90;;;;;;4953155;28;20393;-75
2022/10/21 02:00:57;;;;;;;;;;;9.60;99.90;;;;;;4957034;28;19925;-75
2022/10/21 02:03:25;;;;;;;;;;;9.50;99.90;;;;;;4960184;28;19909;-75
2022/10/21 02:05:51;;;;;;;;;;;9.60;99.90;;;;;;4960047;28;20334;-75
2022/10/21 02:08:16;;;;;;;;;;;9.60;99.90;;;;;;4960435;28;20005;-75
2022/10/21 02:10:44;;;;;;;;;;;9.50;99.90;;;;;;4959285;28;19925;-75
2022/10/21 02:13:12;;;;;;;;;;;9.60;99.90;;;;;;4957313;28;20286;-74
2022/10/21 02:15:38;;;;;;;;;;;9.50;99.90;;;;;;4960773;28;20321;-75
2022/10/21 02:18:05;;;;;;;;;;;9.50;99.90;;;;;;4960351;28;19914;-74
2022/10/21 02:20:32;;;;;;;;;;;9.50;99.90;;;;;;4959655;28;19925;-74
2022/10/21 02:22:58;;;;;;;;;;;9.40;99.90;;;;;;4960500;28;20356;-75
2022/10/21 02:25:26;;;;;;;;;;;9.40;99.90;;;;;;4955038;28;19910;-74
2022/10/21 02:27:52;;;;;;;;;;;9.50;99.90;;;;;;4956145;28;19918;-75
2022/10/21 02:30:17;;;;;;;;;;;9.60;99.90;;;;;;4954006;28;19914;-74
2022/10/21 02:32:50;;;;;;;;;;;9.50;99.90;;;;;;4958360;28;19918;-75
2022/10/21 02:35:25;;;;;;;;;;;9.50;99.90;;;;;;4958365;28;19953;-74
2022/10/21 02:37:58;;;;;;;;;;;9.60;99.90;;;;;;4959563;28;19917;-75
2022/10/21 02:40:35;;;;;;;;;;;9.70;99.90;;;;;;4958864;28;20089;-75
2022/10/21 02:43:19;;;;;;;;;;;9.70;99.90;;;;;;4958989;28;19925;-74
2022/10/21 02:45:45;;;;;;;;;;;9.70;99.90;;;;;;4959403;28;19925;-74
2022/10/21 02:48:11;;;;;;;;;;;9.60;99.90;;;;;;4958968;28;19925;-74
2022/10/21 02:50:36;;;;;;;;;;;9.60;99.90;;;;;;4959921;28;19915;-75
2022/10/21 02:53:02;;;;;;;;;;;9.70;99.90;;;;;;4959583;28;19910;-75
2022/10/21 02:55:27;;;;;;;;;;;9.70;99.90;;;;;;4959507;28;19914;-75
2022/10/21 02:57:52;;;;;;;;;;;9.60;99.90;;;;;;4958498;28;19925;-75
2022/10/21 03:00:18;;;;;;;;;;;9.60;99.90;;;;;;4959284;28;19925;-74
2022/10/21 03:02:43;;;;;;;;;;;9.50;99.90;;;;;;4958059;28;19910;-74
2022/10/21 03:05:11;;;;;;;;;;;9.50;99.90;;;;;;4958418;28;19968;-74
2022/10/21 03:07:37;;;;;;;;;;;9.40;99.90;;;;;;4959110;28;19910;-74
2022/10/21 03:10:03;;;;;;;;;;;9.40;99.90;;;;;;4959063;28;19925;-75
2022/10/21 03:12:28;;;;;;;;;;;9.50;99.90;;;;;;4953706;28;20411;-75
2022/10/21 03:14:53;;;;;;;;;;;9.50;99.90;;;;;;4955329;28;19953;-75
2022/10/21 03:17:19;;;;;;;;;;;9.40;99.90;;;;;;4950039;28;19910;-74
2022/10/21 03:19:44;;;;;;;;;;;9.50;99.90;;;;;;4956613;28;20428;-74
2022/10/21 03:22:09;;;;;;;;;;;9.50;99.90;;;;;;4958463;28;20373;-74
2022/10/21 03:24:35;;;;;;;;;;;9.60;99.90;;;;;;4959633;28;19964;-74
2022/10/21 03:27:00;;;;;;;;;;;9.60;99.90;;;;;;4958654;28;20191;-74
2022/10/21 03:29:26;;;;;;;;;;;9.60;99.90;;;;;;4958023;28;20298;-74
2022/10/21 03:31:51;;;;;;;;;;;9.50;99.90;;;;;;4958987;28;19949;-73
2022/10/21 03:34:16;;;;;;;;;;;9.60;99.90;;;;;;4958489;28;19915;-74
2022/10/21 03:36:42;;;;;;;;;;;9.50;99.90;;;;;;4958180;28;19949;-74
2022/10/21 03:39:08;;;;;;;;;;;9.50;99.90;;;;;;4958715;28;19937;-74
2022/10/21 03:41:34;;;;;;;;;;;9.60;99.90;;;;;;4959168;28;20001;-75
2022/10/21 03:43:59;;;;;;;;;;;9.60;99.90;;;;;;4956873;28;20017;-75
2022/10/21 03:46:25;;;;;;;;;;;9.60;99.90;;;;;;4956559;28;19957;-74
2022/10/21 03:48:50;;;;;;;;;;;9.60;99.90;;;;;;4958968;28;19930;-74
2022/10/21 03:51:15;;;;;;;;;;;9.60;99.90;;;;;;4955848;28;19910;-74
2022/10/21 03:53:41;;;;;;;;;;;9.70;99.90;;;;;;4958034;28;19917;-74
2022/10/21 03:56:06;;;;;;;;;;;9.80;99.90;;;;;;4958156;28;19953;-74
2022/10/21 03:58:34;;;;;;;;;;;9.80;99.90;;;;;;4958671;28;19925;-74
2022/10/21 04:00:59;;;;;;;;;;;9.90;99.90;;;;;;4957473;28;19914;-74
2022/10/21 04:03:25;;;;;;;;;;;9.90;99.90;;;;;;4958450;28;19969;-74
2022/10/21 04:05:50;;;;;;;;;;;9.90;99.90;;;;;;4958581;28;19910;-74
2022/10/21 04:08:15;;;;;;;;;;;9.90;99.90;;;;;;4958498;28;20510;-75
2022/10/21 04:10:41;;;;;;;;;;;9.80;99.90;;;;;;4957600;28;20017;-74
2022/10/21 04:13:06;;;;;;;;;;;9.80;99.90;;;;;;4957592;28;19925;-74
2022/10/21 04:15:32;;;;;;;;;;;9.80;99.90;;;;;;4957257;28;19918;-74
2022/10/21 04:17:57;;;;;;;;;;;9.80;99.90;;;;;;4958291;28;20000;-74
2022/10/21 04:20:22;;;;;;;;;;;9.80;99.90;;;;;;4957930;28;19910;-74
2022/10/21 04:22:48;;;;;;;;;;;9.70;99.90;;;;;;4957446;28;19930;-75
2022/10/21 04:25:16;;;;;;;;;;;9.80;99.90;;;;;;4958316;28;20297;-75
2022/10/21 04:27:41;;;;;;;;;;;9.80;99.90;;;;;;4958390;28;19949;-75
2022/10/21 04:30:07;;;;;;;;;;;9.80;99.90;;;;;;4956207;28;19922;-75
2022/10/21 04:32:32;;;;;;;;;;;9.90;99.90;;;;;;4959019;28;19910;-76
2022/10/21 04:35:00;;;;;;;;;;;9.80;99.90;;;;;;4955211;28;19910;-75
2022/10/21 04:37:26;;;;;;;;;;;9.70;99.90;;;;;;4954907;28;20365;-75
2022/10/21 04:39:51;;;;;;;;;;;9.80;99.90;;;;;;4956866;28;19918;-77
2022/10/21 04:42:16;;;;;;;;;;;9.60;99.90;;;;;;4957830;28;19918;-77
2022/10/21 04:44:42;;;;;;;;;;;9.60;99.90;;;;;;4953620;28;19917;-76
2022/10/21 04:47:07;;;;;;;;;;;9.60;99.90;;;;;;4952361;28;20300;-76
2022/10/21 04:49:33;;;;;;;;;;;9.50;99.90;;;;;;4957949;28;19926;-74
2022/10/21 04:51:58;;;;;;;;;;;9.50;99.90;;;;;;4949404;28;20013;-74
2022/10/21 04:54:23;;;;;;;;;;;9.50;99.90;;;;;;4951150;28;20004;-74
2022/10/21 04:56:49;;;;;;;;;;;9.50;99.90;;;;;;4953859;28;20521;-74
2022/10/21 04:59:14;;;;;;;;;;;9.50;99.90;;;;;;4949213;28;19949;-73
2022/10/21 05:01:40;;;;;;;;;;;9.60;99.90;;;;;;4960423;28;19910;-74
2022/10/21 05:04:05;;;;;;;;;;;9.50;99.90;;;;;;4950218;28;19910;-74
2022/10/21 05:06:31;;;;;;;;;;;9.60;99.90;;;;;;4950289;28;19910;-74
2022/10/21 05:08:56;;;;;;;;;;;9.60;99.90;;;;;;4950204;28;20409;-73
2022/10/21 05:11:21;;;;;;;;;;;9.60;99.90;;;;;;4952925;28;19915;-74
2022/10/21 05:13:47;;;;;;;;;;;9.50;99.90;;;;;;4960835;28;20417;-74
2022/10/21 05:16:12;;;;;;;;;;;9.50;99.90;;;;;;4954821;28;19910;-74
2022/10/21 05:18:38;;;;;;;;;;;9.50;99.90;;;;;;4953123;28;20336;-74
2022/10/21 05:21:03;;;;;;;;;;;9.50;99.90;;;;;;4949180;28;20400;-74
2022/10/21 05:23:29;;;;;;;;;;;9.40;99.90;;;;;;4952141;28;20009;-74
2022/10/21 05:25:54;;;;;;;;;;;9.50;99.90;;;;;;4954748;28;19921;-74
2022/10/21 05:28:20;;;;;;;;;;;9.50;99.90;;;;;;4953407;28;20353;-75
2022/10/21 05:30:45;;;;;;;;;;;9.50;99.90;;;;;;4948305;28;20385;-74
2022/10/21 05:33:10;;;;;;;;;;;9.50;99.90;;;;;;4953592;28;19984;-75
2022/10/21 05:35:36;;;;;;;;;;;9.40;99.90;;;;;;4950252;28;20004;-74
2022/10/21 05:38:03;;;;;;;;;;;9.40;99.90;;;;;;4950545;28;19914;-74
2022/10/21 05:40:29;;;;;;;;;;;9.40;99.90;;;;;;4954209;28;19972;-74
2022/10/21 05:42:54;;;;;;;;;;;9.50;99.90;;;;;;4950919;28;20703;-74
2022/10/21 05:45:20;;;;;;;;;;;9.50;99.90;;;;;;4952188;28;19910;-74
2022/10/21 05:47:45;;;;;;;;;;;9.60;99.90;;;;;;4955050;28;19910;-74
2022/10/21 05:50:11;;;;;;;;;;;9.70;99.90;;;;;;4952801;28;19918;-74
2022/10/21 05:52:36;;;;;;;;;;;9.70;99.90;;;;;;4959939;28;20012;-74
2022/10/21 05:55:02;;;;;;;;;;;9.70;99.90;;;;;;4955114;28;20065;-74
2022/10/21 05:57:30;;;;;;;;;;;9.80;99.90;;;;;;4955726;28;20823;-74
2022/10/21 05:59:55;;;;;;;;;;;9.80;99.90;;;;;;4955819;28;19917;-74
2022/10/21 06:02:21;;;;;;;;;;;9.90;99.90;;;;;;4951175;28;19914;-74
2022/10/21 06:04:46;;;;;;;;;;;9.90;99.90;;;;;;4950631;28;19911;-75
2022/10/21 06:07:11;;;;;;;;;;;10.00;99.90;;;;;;4951074;28;20412;-74
2022/10/21 06:09:37;;;;;;;;;;;9.90;99.90;;;;;;4957501;28;19922;-74
2022/10/21 06:12:02;;;;;;;;;;;10.00;99.90;;;;;;4967934;28;19910;-74
2022/10/21 06:14:28;;;;;;;;;;;10.10;99.90;;;;;;4953152;28;19917;-74
2022/10/21 06:16:53;;;;;;;;;;;10.10;99.90;;;;;;4966799;28;19910;-75
2022/10/21 06:19:19;;;;;;;;;;;10.10;99.90;;;;;;4967272;28;19951;-74
2022/10/21 06:21:46;;;;;;;;;;;10.20;99.90;;;;;;4952582;28;19977;-74
2022/10/21 06:24:11;;;;;;;;;;;10.20;99.90;;;;;;4955791;28;20230;-75
2022/10/21 06:26:36;;;;;;;;;;;10.30;99.90;;;;;;4959782;28;20092;-72
2022/10/21 06:29:02;;;;;;;;;;;10.20;99.90;;;;;;4952772;28;20022;-75
2022/10/21 06:31:37;;;;;;;;;;;10.30;99.90;;;;;;4950628;28;75387;-74
2022/10/21 06:34:02;;;;;;;;;;;10.30;99.90;;;;;;4958712;28;19980;-74
2022/10/21 06:36:29;;;;;;;;;;;10.30;99.90;;;;;;4953560;28;19910;-74
2022/10/21 06:38:54;;;;;;;;;;;10.30;99.90;;;;;;4956040;28;19949;-74
2022/10/21 06:41:20;;;;;;;;;;;10.40;99.90;;;;;;4958412;28;19960;-74
2022/10/21 06:43:45;;;;;;;;;;;10.50;99.90;;;;;;4961744;28;19910;-74
2022/10/21 06:46:11;;;;;;;;;;;10.50;99.90;;;;;;4959211;28;20066;-75
2022/10/21 06:48:37;;;;;;;;;;;10.60;99.90;;;;;;4963429;28;20080;-74
2022/10/21 06:51:04;;;;;;;;;;;10.60;99.90;;;;;;4959188;28;19910;-72
2022/10/21 06:53:29;;;;;;;;;;;10.60;99.90;;;;;;4959657;28;20025;-77
2022/10/21 06:56:01;;;;;;;;;;;10.70;99.90;;;;;;4959948;28;20045;-75
2022/10/21 06:58:26;;;;;;;;;;;10.70;99.90;;;;;;4957762;28;19972;-75
2022/10/21 07:00:52;;;;;;;;;;;10.80;99.90;;;;;;4955975;28;20573;-75
2022/10/21 07:03:17;;;;;;;;;;;10.90;99.90;;;;;;4963808;28;20491;-74
2022/10/21 07:05:42;;;;;;;;;;;10.90;99.90;;;;;;4961668;28;19910;-73
2022/10/21 07:08:08;;;;;;;;;;;11.10;99.90;;;;;;4961455;28;19961;-73
2022/10/21 07:10:48;;;;;;;;;;;11.20;99.90;;;;;;4954731;28;19910;-74
2022/10/21 07:13:13;;;;;;;;;;;11.30;99.90;;;;;;4951967;28;19946;-74
2022/10/21 07:15:39;;;;;;;;;;;11.30;99.90;;;;;;4966270;28;20408;-74
2022/10/21 07:18:04;;;;;;;;;;;11.40;99.90;;;;;;4959673;28;19917;-74
2022/10/21 07:20:30;;;;;;;;;;;11.40;99.90;;;;;;4967848;28;20337;-74
2022/10/21 07:22:55;;;;;;;;;;;11.40;99.90;;;;;;4959336;28;20312;-74
2022/10/21 07:25:23;;;;;;;;;;;11.60;99.90;;;;;;4965226;28;19910;-73
2022/10/21 07:27:49;;;;;;;;;;;11.70;99.90;;;;;;4958774;28;20755;-73
2022/10/21 07:30:14;;;;;;;;;;;11.70;99.90;;;;;;4955020;28;19918;-74
2022/10/21 07:32:40;;;;;;;;;;;11.70;99.90;;;;;;4955788;28;19933;-74
2022/10/21 07:35:05;;;;;;;;;;;11.70;99.90;;;;;;4961349;28;20445;-73
2022/10/21 07:37:31;;;;;;;;;;;11.70;99.90;;;;;;4955309;28;20387;-73
2022/10/21 07:39:56;;;;;;;;;;;11.80;99.90;;;;;;4967013;28;19909;-73
2022/10/21 07:42:23;;;;;;;;;;;11.80;99.90;;;;;;4955450;28;19910;-74
2022/10/21 07:44:49;;;;;;;;;;;11.80;99.90;;;;;;4961477;28;19983;-74
2022/10/21 07:47:14;;;;;;;;;;;11.80;99.90;;;;;;4958926;28;20111;-75
2022/10/21 07:49:40;;;;;;;;;;;11.80;99.90;;;;;;4954299;28;20421;-74
2022/10/21 07:52:05;;;;;;;;;;;11.80;99.90;;;;;;4959367;28;20289;-73
2022/10/21 07:54:31;;;;;;;;;;;11.90;99.90;;;;;;4964721;28;19911;-74
2022/10/21 07:56:57;;;;;;;;;;;11.90;99.90;;;;;;4967551;28;19909;-74
2022/10/21 07:59:22;;;;;;;;;;;11.90;99.90;;;;;;4965987;28;19981;-74
2022/10/21 08:01:48;;;;;;;;;;;12.00;99.90;;;;;;4960717;28;19966;-74
2022/10/21 08:04:30;;;;;;;;;;;12.10;99.90;;;;;;4960906;28;19914;-74
2022/10/21 08:06:56;;;;;;;;;;;12.10;99.90;;;;;;4964449;28;19910;-75
2022/10/21 08:09:21;;;;;;;;;;;12.40;99.90;;;;;;4953219;28;19910;-74
2022/10/21 08:11:47;;;;;;;;;;;12.60;99.90;;;;;;4954170;28;19921;-75
2022/10/21 08:14:13;;;;;;;;;;;12.70;99.90;;;;;;4960603;28;19921;-74
2022/10/21 08:16:39;;;;;;;;;;;12.80;99.90;;;;;;4958596;28;19910;-76
2022/10/21 08:19:04;;;;;;;;;;;12.80;99.90;;;;;;4961372;28;19910;-76
2022/10/21 08:21:30;;;;;;;;;;;12.90;99.90;;;;;;4950727;28;19906;-76
2022/10/21 08:23:56;;;;;;;;;;;12.90;99.90;;;;;;4959176;28;19917;-76
2022/10/21 08:26:21;;;;;;;;;;;12.90;99.90;;;;;;4950670;28;19985;-77
2022/10/21 08:28:47;;;;;;;;;;;12.80;99.90;;;;;;4959759;28;19958;-76
2022/10/21 08:31:13;;;;;;;;;;;12.90;99.90;;;;;;4953256;28;19961;-75
2022/10/21 08:33:39;;;;;;;;;;;13.00;99.90;;;;;;4961572;28;20027;-76
2022/10/21 08:36:05;;;;;;;;;;;13.00;99.90;;;;;;4959532;28;20378;-75
2022/10/21 08:38:30;;;;;;;;;;;12.90;99.90;;;;;;4955144;28;19917;-76
2022/10/21 08:40:56;;;;;;;;;;;13.00;99.90;;;;;;4960255;28;19915;-76
2022/10/21 08:43:23;;;;;;;;;;;12.90;99.90;;;;;;4964860;28;20354;-76
2022/10/21 08:45:54;;;;;;;;;;;13.00;99.90;;;;;;4960189;28;20008;-76
2022/10/21 08:48:23;;;;;;;;;;;13.10;99.90;;;;;;4949646;28;20021;-76
2022/10/21 08:50:50;;;;;;;;;;;13.10;99.90;;;;;;4950197;28;19906;-76
2022/10/21 08:53:21;;;;;;;;;;;13.20;99.90;;;;;;4958555;28;19966;-76
2022/10/21 08:55:47;;;;;;;;;;;13.40;99.90;;;;;;4953975;28;19910;-75
2022/10/21 08:58:15;;;;;;;;;;;13.50;99.90;;;;;;4954263;28;20381;-76
2022/10/21 09:00:49;;;;;;;;;;;13.60;99.90;;;;;;4967842;28;19910;-75
2022/10/21 09:03:17;;;;;;;;;;;14.00;99.90;;;;;;4967643;28;20459;-76
2022/10/21 09:05:53;;;;;;;;;;;14.20;99.90;;;;;;4969200;28;19906;-76
2022/10/21 09:08:36;;;;;;;;;;;14.30;99.90;;;;;;4951835;28;19993;-76
2022/10/21 09:11:02;;;;;;;;;;;14.40;99.90;;;;;;4949764;28;19913;-75
2022/10/21 09:13:45;;;;;;;;;;;14.70;99.90;;;;;;4962817;28;19914;-76
2022/10/21 09:16:18;;;;;;;;;;;14.90;99.90;;;;;;4968910;28;19906;-75
2022/10/21 09:19:02;;;;;;;;;;;14.90;99.90;;;;;;4969077;28;19906;-76
2022/10/21 09:21:35;;;;;;;;;;;14.80;99.90;;;;;;4949805;28;19910;-76
2022/10/21 09:24:11;;;;;;;;;;;14.70;99.90;;;;;;4959357;28;19918;-76
2022/10/21 09:26:40;;;;;;;;;;;14.50;99.90;;;;;;4967418;28;19916;-76
2022/10/21 09:29:21;;;;;;;;;;;14.20;99.90;;;;;;4966386;28;19914;-75
2022/10/21 09:31:47;;;;;;;;;;;14.00;99.90;;;;;;4960515;28;19918;-76
2022/10/21 09:34:15;;;;;;;;;;;14.10;99.90;;;;;;4949307;28;20076;-76
2022/10/21 09:36:46;;;;;;;;;;;14.30;99.90;;;;;;4961152;28;19910;-75
2022/10/21 09:39:15;;;;;;;;;;;14.80;99.90;;;;;;4968656;28;19906;-75
2022/10/21 09:41:43;;;;;;;;;;;15.40;99.90;;;;;;4968810;28;19918;-75
2022/10/21 09:44:13;;;;;;;;;;;15.40;99.90;;;;;;4958673;28;19914;-76
2022/10/21 09:46:39;;;;;;;;;;;15.20;99.90;;;;;;4951507;28;19965;-77
2022/10/21 09:49:04;;;;;;;;;;;15.00;99.90;;;;;;4954198;28;20365;-76
2022/10/21 09:51:34;;;;;;;;;;;14.90;99.90;;;;;;4968772;28;19913;-76
2022/10/21 09:54:08;;;;;;;;;;;14.90;99.90;;;;;;4965981;28;20273;-77
2022/10/21 09:56:43;;;;;;;;;;;15.00;99.90;;;;;;4960355;28;19906;-76
2022/10/21 09:59:10;;;;;;;;;;;15.30;99.90;;;;;;4949848;28;19960;-77
2022/10/21 10:01:37;;;;;;;;;;;15.60;99.90;;;;;;4961672;28;19906;-76
2022/10/21 10:04:22;;;;;;;;;;;15.90;99.90;;;;;;4957413;28;19921;-77
2022/10/21 10:06:48;;;;;;;;;;;16.20;99.90;;;;;;4966126;28;19914;-76
2022/10/21 10:09:23;;;;;;;;;;;16.20;99.90;;;;;;4967838;28;19965;-75
2022/10/21 10:11:54;;;;;;;;;;;16.40;99.90;;;;;;4968593;28;20229;-75
2022/10/21 10:14:22;;;;;;;;;;;16.50;99.90;;;;;;4953716;28;20401;-74
2022/10/21 10:16:48;;;;;;;;;;;16.40;99.90;;;;;;4964657;28;19921;-75
2022/10/21 10:19:18;;;;;;;;;;;16.20;99.90;;;;;;4971558;28;19906;-75
2022/10/21 10:21:44;;;;;;;;;;;16.40;99.90;;;;;;4972042;28;20005;-76
2022/10/21 10:24:20;;;;;;;;;;;16.50;99.90;;;;;;4971722;28;20001;-75
2022/10/21 10:26:46;;;;;;;;;;;16.90;99.90;;;;;;4970491;28;20008;-75
2022/10/21 10:29:14;;;;;;;;;;;17.00;99.80;;;;;;4961129;28;19914;-75
2022/10/21 10:31:45;;;;;;;;;;;17.00;99.90;;;;;;4952076;28;20590;-75
2022/10/21 10:34:17;;;;;;;;;;;17.10;99.20;;;;;;4956296;28;19910;-75
2022/10/21 10:36:42;;;;;;;;;;;17.50;99.20;;;;;;4971704;28;20004;-76
2022/10/21 10:39:15;;;;;;;;;;;17.70;97.20;;;;;;4971692;28;19997;-75
2022/10/21 10:41:45;;;;;;;;;;;18.10;97.70;;;;;;4971637;28;19953;-75
2022/10/21 10:44:15;;;;;;;;;;;19.20;95.00;;;;;;4970629;28;19920;-75
2022/10/21 10:46:41;;;;;;;;;;;20.80;90.50;;;;;;4963930;28;19937;-76
2022/10/21 10:49:12;;;;;;;;;;;19.70;88.80;;;;;;4952419;28;19976;-75
2022/10/21 10:51:41;;;;;;;;;;;18.90;91.00;;;;;;4951856;28;19910;-75
2022/10/21 10:54:39;;;;;;;;;;;19.50;90.40;;;;;;4955751;28;19914;-75
2022/10/21 10:57:25;;;;;;;;;;;19.20;91.40;;;;;;4947811;28;20130;-75
2022/10/21 11:00:13;;;;;;;;;;;20.00;90.00;;;;;;4971151;28;19916;-75
2022/10/21 11:02:51;;;;;;;;;;;22.00;81.70;;;;;;4961744;28;19953;-75
2022/10/21 11:05:23;;;;;;;;;;;23.50;75.20;;;;;;4968876;28;19917;-75
2022/10/21 11:07:56;;;;;;;;;;;24.50;66.80;;;;;;4965282;28;19915;-75
2022/10/21 11:10:32;;;;;;;;;;;23.40;67.80;;;;;;4951700;28;19938;-74
2022/10/21 11:12:59;;;;;;;;;;;24.00;65.50;;;;;;4951659;28;19917;-75
2022/10/21 11:15:48;;;;;;;;;;;25.70;60.90;;;;;;4951515;28;19910;-76
2022/10/21 11:18:17;;;;;;;;;;;27.00;56.30;;;;;;4957114;28;19919;-75
2022/10/21 11:20:51;;;;;;;;;;;26.00;59.00;;;;;;4960580;28;20068;-75
2022/10/21 11:23:29;;;;;;;;;;;23.80;61.30;;;;;;4962073;28;19910;-75
2022/10/21 11:25:57;;;;;;;;;;;21.60;68.70;;;;;;4970785;28;20349;-77
2022/10/21 11:28:27;;;;;;;;;;;20.80;73.50;;;;;;4968092;28;19961;-75
2022/10/21 11:30:58;;;;;;;;;;;19.70;77.00;;;;;;4951139;28;20397;-75
2022/10/21 11:33:40;;;;;;;;;;;19.20;80.80;;;;;;4963026;28;19937;-75
2022/10/21 11:36:20;;;;;;;;;;;19.00;83.40;;;;;;4951517;28;19949;-75
2022/10/21 11:38:45;;;;;;;;;;;19.20;81.40;;;;;;4962992;28;20430;-75
2022/10/21 11:41:16;;;;;;;;;;;19.60;81.40;;;;;;4960584;28;19910;-74
2022/10/21 11:43:47;;;;;;;;;;;19.40;80.00;;;;;;4951172;28;19913;-75
2022/10/21 11:46:30;;;;;;;;;;;21.20;75.20;;;;;;4950686;28;19960;-76
2022/10/21 11:48:59;;;;;;;;;;;22.70;68.40;;;;;;4970344;28;19918;-75
2022/10/21 11:51:36;;;;;;;;;;;21.50;71.30;;;;;;4964245;28;19977;-75
2022/10/21 11:54:16;;;;;;;;;;;20.00;75.70;;;;;;4950973;28;20454;-75
2022/10/21 11:56:48;;;;;;;;;;;19.00;82.60;;;;;;4951140;28;19917;-75
2022/10/21 11:59:23;;;;;;;;;;;18.80;84.80;;;;;;4951588;28;19960;-75
2022/10/21 12:02:07;;;;;;;;;;;19.60;82.10;;;;;;4969315;28;19914;-75
2022/10/21 12:04:51;;;;;;;;;;;20.40;78.10;;;;;;4961335;28;19976;-74
2022/10/21 12:07:19;;;;;;;;;;;21.10;78.50;;;;;;4961110;28;19910;-75
2022/10/21 12:09:55;;;;;;;;;;;21.90;75.20;;;;;;4970321;28;19911;-75
2022/10/21 12:12:22;;;;;;;;;;;21.30;74.70;;;;;;4969007;28;19953;-73
2022/10/21 12:14:55;;;;;;;;;;;21.50;74.30;;;;;;4960224;28;20362;-75
2022/10/21 12:17:21;;;;;;;;;;;22.10;71.50;;;;;;4957907;28;19910;-75
2022/10/21 12:19:55;;;;;;;;;;;24.20;67.20;;;;;;4969843;28;19912;-75
2022/10/21 12:22:21;;;;;;;;;;;24.60;62.90;;;;;;4963639;28;19925;-76
2022/10/21 12:24:54;;;;;;;;;;;24.70;62.10;;;;;;4950515;28;19907;-75
2022/10/21 12:27:23;;;;;;;;;;;25.10;63.60;;;;;;4953323;28;19910;-75
2022/10/21 12:29:59;;;;;;;;;;;26.90;58.70;;;;;;4956845;28;19919;-75
2022/10/21 12:32:34;;;;;;;;;;;26.20;57.20;;;;;;4961727;28;20377;-75
2022/10/21 12:35:00;;;;;;;;;;;24.40;60.00;;;;;;4950793;28;19914;-75
2022/10/21 12:37:45;;;;;;;;;;;22.30;66.10;;;;;;4957424;28;19917;-75
2022/10/21 12:40:10;;;;;;;;;;;21.20;71.20;;;;;;4951498;28;20002;-76
2022/10/21 12:42:36;;;;;;;;;;;20.30;75.90;;;;;;4949931;28;19992;-75
2022/10/21 12:45:01;;;;;;;;;;;19.40;79.30;;;;;;4950189;28;19993;-75
2022/10/21 12:47:31;;;;;;;;;;;18.60;83.70;;;;;;4954032;28;19926;-75
2022/10/21 12:50:22;;;;;;;;;;;18.20;87.30;;;;;;4950585;28;19914;-75
2022/10/21 12:53:06;;;;;;;;;;;17.80;90.10;;;;;;4946971;28;19949;-75
2022/10/21 12:55:38;;;;;;;;;;;17.40;91.70;;;;;;4951169;28;19911;-75
2022/10/21 12:58:05;;;;;;;;;;;17.30;93.10;;;;;;4967424;28;20277;-75
2022/10/21 13:00:30;;;;;;;;;;;17.20;93.50;;;;;;4969158;28;19913;-74
2022/10/21 13:03:03;;;;;;;;;;;17.00;94.80;;;;;;4951494;28;19906;-74
2022/10/21 13:05:34;;;;;;;;;;;17.00;95.10;;;;;;4962589;28;19913;-76
2022/10/21 13:08:18;;;;;;;;;;;16.90;96.00;;;;;;4962221;28;19910;-75
2022/10/21 13:11:11;;;;;;;;;;;16.90;96.20;;;;;;4954284;28;20004;-76
2022/10/21 13:13:43;;;;;;;;;;;16.80;97.70;;;;;;4952154;28;19918;-75
2022/10/21 13:16:18;;;;;;;;;;;16.80;98.10;;;;;;4961443;28;20462;-75
2022/10/21 13:18:50;;;;;;;;;;;16.80;97.90;;;;;;4949687;28;19929;-75
2022/10/21 13:21:21;;;;;;;;;;;16.80;98.80;;;;;;4959386;28;19917;-75
2022/10/21 13:23:49;;;;;;;;;;;16.80;99.10;;;;;;4951887;28;19918;-75
2022/10/21 13:26:18;;;;;;;;;;;16.70;99.20;;;;;;4949709;28;19941;-75
2022/10/21 13:28:58;;;;;;;;;;;16.70;99.40;;;;;;4953626;28;19918;-75
2022/10/21 13:31:23;;;;;;;;;;;16.60;99.70;;;;;;4957295;28;20089;-75
2022/10/21 13:33:53;;;;;;;;;;;16.50;99.90;;;;;;4959623;28;20389;-75
2022/10/21 13:36:32;;;;;;;;;;;16.40;99.20;;;;;;4952259;28;19917;-75
2022/10/21 13:38:59;;;;;;;;;;;16.30;99.80;;;;;;4959214;28;19917;-75
2022/10/21 13:41:25;;;;;;;;;;;16.10;99.90;;;;;;4953842;28;19910;-75
2022/10/21 13:43:58;;;;;;;;;;;16.00;99.50;;;;;;4960580;28;20284;-75
2022/10/21 13:46:26;;;;;;;;;;;15.90;99.90;;;;;;4963851;28;19957;-75
2022/10/21 13:48:51;;;;;;;;;;;15.90;99.90;;;;;;4962265;28;20578;-75
2022/10/21 13:51:22;;;;;;;;;;;15.80;99.90;;;;;;4971427;28;19910;-75
2022/10/21 13:53:48;;;;;;;;;;;15.80;99.90;;;;;;4968758;28;19914;-76
2022/10/21 13:56:24;;;;;;;;;;;15.80;99.90;;;;;;4961298;28;20020;-77
2022/10/21 13:58:50;;;;;;;;;;;15.70;99.90;;;;;;4963700;28;19910;-76
2022/10/21 14:01:18;;;;;;;;;;;15.70;99.90;;;;;;4963160;28;19933;-76
2022/10/21 14:03:44;;;;;;;;;;;15.70;99.90;;;;;;4962901;28;19910;-76
2022/10/21 14:06:13;;;;;;;;;;;15.70;99.90;;;;;;4967068;28;19910;-76
2022/10/21 14:08:44;;;;;;;;;;;15.70;99.90;;;;;;4970301;28;19914;-76
2022/10/21 14:11:20;;;;;;;;;;;15.70;99.90;;;;;;4956883;28;19915;-76
2022/10/21 14:13:46;;;;;;;;;;;15.60;99.90;;;;;;4967107;28;20005;-76
2022/10/21 14:16:17;;;;;;;;;;;15.60;99.90;;;;;;4959510;28;19974;-76
2022/10/21 14:18:45;;;;;;;;;;;15.60;99.90;;;;;;4968276;28;19917;-76
2022/10/21 14:21:16;;;;;;;;;;;15.50;99.90;;;;;;4961097;28;20426;-76
2022/10/21 14:23:43;;;;;;;;;;;15.50;99.90;;;;;;4952372;28;20017;-76
2022/10/21 14:26:08;;;;;;;;;;;15.40;99.90;;;;;;4960445;28;19935;-75
2022/10/21 14:28:35;;;;;;;;;;;15.30;99.90;;;;;;4960349;28;20493;-75
2022/10/21 14:31:01;;;;;;;;;;;15.30;99.90;;;;;;4962072;28;19918;-75
2022/10/21 14:33:27;;;;;;;;;;;15.30;99.90;;;;;;4962552;28;19925;-75